createdAt,value
2019-02-21T00:04:46.113Z,17.80
2019-02-21T00:09:53.207Z,18.17
2019-02-21T00:15:01.121Z,18.27
2019-02-21T00:20:09.457Z,19.87
2019-02-21T00:25:16.827Z,21.30
2019-02-21T00:30:34.545Z,21.20
2019-02-21T00:35:32.934Z,22.73
2019-02-21T00:40:40.546Z,20.90
2019-02-21T00:45:48.034Z,23.70
2019-02-21T00:50:55.394Z,29.50
2019-02-21T00:56:03.812Z,25.43
2019-02-21T01:01:11.069Z,30.87
2019-02-21T01:06:18.472Z,34.60
2019-02-21T01:11:28.635Z,42.63
2019-02-21T01:16:36.274Z,26.43
2019-02-21T01:21:43.712Z,28.40
2019-02-21T01:26:50.829Z,29.13
2019-02-21T01:31:58.031Z,29.70
2019-02-21T01:37:06.100Z,31.73
2019-02-21T01:42:13.373Z,29.40
2019-02-21T01:47:20.700Z,31.93
2019-02-21T01:52:27.809Z,28.73
2019-02-21T01:57:34.952Z,29.57
2019-02-21T02:02:42.067Z,30.95
2019-02-21T02:07:50.295Z,31.60
2019-02-21T02:12:57.518Z,37.93
2019-02-21T02:18:04.761Z,34.17
2019-02-21T02:23:12.160Z,35.35
2019-02-21T02:28:20.585Z,30.53
2019-02-21T02:33:27.987Z,26.40
2019-02-21T02:38:35.220Z,27.60
2019-02-21T02:43:42.325Z,25.43
2019-02-21T02:48:49.416Z,24.67
2019-02-21T02:53:56.699Z,21.20
2019-02-21T02:59:03.961Z,21.63
2019-02-21T03:04:10.966Z,21.97
2019-02-21T03:09:18.105Z,22.83
2019-02-21T03:14:25.425Z,20.40
2019-02-21T03:19:33.504Z,20.00
2019-02-21T03:24:40.600Z,19.63
2019-02-21T03:29:47.937Z,19.20
2019-02-21T03:34:55.023Z,16.83
2019-02-21T03:40:02.243Z,17.37
2019-02-21T03:45:10.726Z,17.10
2019-02-21T03:50:17.834Z,16.57
2019-02-21T03:55:25.119Z,17.67
2019-02-21T04:00:32.217Z,19.67
2019-02-21T04:05:40.717Z,20.02
2019-02-21T04:10:47.827Z,19.43
2019-02-21T04:15:54.934Z,19.20
2019-02-21T04:21:02.227Z,18.53
2019-02-21T04:26:09.343Z,18.43
2019-02-21T04:31:16.412Z,18.42
2019-02-21T04:36:23.763Z,16.80
2019-02-21T04:41:32.222Z,17.23
2019-02-21T04:46:39.444Z,17.70
2019-02-21T04:51:46.570Z,16.20
2019-02-21T04:56:53.988Z,16.40
2019-02-21T05:02:01.115Z,15.80
2019-02-21T05:07:08.568Z,15.67
2019-02-21T05:12:15.982Z,18.00
2019-02-21T05:17:23.042Z,17.17
2019-02-21T05:22:30.144Z,18.27
2019-02-21T05:27:41.482Z,17.53
2019-02-21T05:33:10.217Z,17.67
2019-02-21T05:38:39.111Z,18.97
2019-02-21T05:44:05.190Z,16.80
2019-02-21T05:49:24.424Z,15.03
2019-02-21T05:54:48.943Z,16.33
2019-02-21T06:00:13.609Z,16.27
2019-02-21T06:05:27.093Z,17.87
2019-02-21T06:10:58.956Z,19.95
2019-02-21T06:16:40.323Z,18.50
2019-02-21T06:22:10.459Z,18.20
2019-02-21T06:27:28.812Z,23.17
2019-02-21T06:32:35.924Z,16.90
2019-02-21T06:37:43.067Z,19.73
2019-02-21T06:42:50.784Z,18.63
2019-02-21T06:47:57.882Z,17.33
2019-02-21T06:53:05.908Z,16.87
2019-02-21T06:58:12.988Z,15.70
2019-02-21T07:03:20.102Z,17.40
2019-02-21T07:08:27.209Z,18.30
2019-02-21T07:13:35.362Z,19.63
2019-02-21T07:18:42.416Z,16.70
2019-02-21T07:23:49.565Z,16.40
2019-02-21T07:28:58.314Z,22.27
2019-02-21T07:34:07.064Z,18.23
2019-02-21T07:39:19.802Z,25.53
2019-02-21T07:44:23.227Z,24.60
2019-02-21T07:49:30.350Z,20.07
2019-02-21T07:54:37.455Z,31.27
2019-02-21T07:59:44.592Z,19.70
2019-02-21T08:04:51.675Z,23.87
2019-02-21T08:09:58.786Z,24.17
2019-02-21T08:15:06.452Z,20.53
2019-02-21T08:25:57.980Z,18.77
2019-02-21T08:31:06.097Z,22.45
2019-02-21T08:36:13.176Z,20.00
2019-02-21T08:41:20.257Z,21.15
2019-02-21T08:46:28.479Z,22.97
2019-02-21T08:51:35.585Z,17.10
2019-02-21T08:56:42.629Z,21.80
2019-02-21T09:01:49.743Z,18.17
2019-02-21T09:06:56.840Z,23.87
2019-02-21T09:12:05.662Z,18.77
2019-02-21T09:17:13.224Z,18.70
2019-02-21T09:22:20.655Z,16.87
2019-02-21T09:27:27.773Z,15.67
2019-02-21T09:32:35.885Z,62.47
2019-02-21T09:37:42.968Z,56.23
2019-02-21T09:42:51.093Z,36.33
2019-02-21T09:47:58.177Z,26.93
2019-02-21T09:53:06.044Z,27.87
2019-02-21T09:58:13.227Z,23.80
2019-02-21T10:03:20.285Z,13.93
2019-02-21T10:08:27.364Z,17.73
2019-02-21T10:13:34.453Z,18.10
2019-02-21T10:18:41.582Z,11.43
2019-02-21T10:23:48.606Z,21.07
2019-02-21T10:28:55.721Z,21.03
2019-02-21T10:34:02.944Z,16.10
2019-02-21T10:39:10.186Z,11.90
2019-02-21T10:44:17.445Z,8.23
2019-02-21T10:49:25.049Z,8.70
2019-02-21T10:54:32.489Z,5.97
2019-02-21T10:59:46.753Z,6.57
2019-02-21T11:04:54.753Z,5.20
2019-02-21T11:09:59.176Z,7.37
2019-02-21T11:15:08.903Z,6.90
2019-02-21T11:20:17.268Z,37.13
2019-02-21T11:25:24.401Z,11.40
2019-02-21T11:30:31.763Z,10.93
2019-02-21T11:35:38.865Z,6.10
2019-02-21T11:40:45.961Z,12.67
2019-02-21T11:45:57.190Z,8.27
2019-02-21T11:51:03.639Z,25.07
2019-02-21T11:56:11.318Z,20.10
2019-02-21T12:01:18.423Z,27.73
2019-02-21T12:06:25.512Z,14.13
2019-02-21T12:11:33.431Z,15.60
2019-02-21T12:16:42.579Z,12.33
2019-02-21T12:21:58.727Z,15.83
2019-02-21T12:26:58.535Z,6.97
2019-02-21T12:32:05.992Z,9.00
2019-02-21T12:37:13.093Z,8.17
2019-02-21T12:42:20.391Z,20.30
2019-02-21T12:47:27.396Z,11.40
2019-02-21T12:52:34.508Z,5.27
2019-02-21T12:57:41.587Z,6.20
2019-02-21T13:02:48.704Z,6.50
2019-02-21T13:07:55.845Z,6.43
2019-02-21T13:13:02.917Z,6.13
2019-02-21T13:18:15.964Z,7.90
2019-02-21T13:23:18.688Z,14.67
2019-02-21T13:28:25.832Z,9.70
2019-02-21T13:33:32.815Z,7.30
2019-02-21T13:38:39.980Z,5.60
2019-02-21T13:43:48.045Z,6.33
2019-02-21T13:48:55.241Z,13.77
2019-02-21T13:54:02.246Z,16.93
2019-02-21T13:59:09.412Z,9.27
2019-02-21T14:04:16.534Z,11.80
2019-02-21T14:09:24.481Z,7.95
2019-02-21T14:14:31.714Z,12.00
2019-02-21T14:19:38.810Z,9.33
2019-02-21T14:24:46.015Z,14.60
2019-02-21T14:29:53.128Z,7.67
2019-02-21T14:35:00.833Z,8.17
2019-02-21T14:40:09.022Z,13.60
2019-02-21T14:45:17.485Z,42.73
2019-02-21T14:50:31.465Z,10.30
2019-02-21T14:55:38.740Z,6.80
2019-02-21T15:00:45.839Z,9.43
2019-02-21T15:05:54.036Z,11.23
2019-02-21T15:11:01.116Z,6.47
2019-02-21T15:16:08.393Z,8.97
2019-02-21T15:21:15.373Z,12.43
2019-02-21T15:26:22.805Z,20.67
2019-02-21T15:31:29.893Z,9.05
2019-02-21T15:36:38.687Z,11.17
2019-02-21T15:41:47.076Z,8.17
2019-02-21T15:46:54.526Z,8.30
2019-02-21T15:52:02.201Z,8.87
2019-02-21T15:57:09.395Z,17.00
2019-02-21T16:02:16.580Z,5.73
2019-02-21T16:07:23.811Z,4.70
2019-02-21T16:12:32.394Z,5.53
2019-02-21T16:17:40.354Z,37.57
2019-02-21T16:22:47.540Z,26.47
2019-02-21T16:27:55.561Z,30.30
2019-02-21T16:33:02.977Z,48.17
2019-02-21T16:38:10.079Z,40.30
2019-02-21T16:43:17.095Z,37.40
2019-02-21T16:48:24.185Z,27.20
2019-02-21T16:53:31.277Z,38.17
2019-02-21T16:58:38.356Z,29.43
2019-02-21T17:03:45.412Z,35.47
2019-02-21T17:08:52.660Z,102.27
2019-02-21T17:14:00.739Z,64.43
2019-02-21T17:19:08.083Z,162.13
2019-02-21T17:24:15.188Z,159.83
2019-02-21T17:29:23.424Z,32.93
2019-02-21T17:34:30.562Z,60.43
2019-02-21T17:39:37.681Z,69.10
2019-02-21T17:44:44.856Z,51.13
2019-02-21T17:49:51.928Z,21.37
2019-02-21T17:54:59.008Z,37.93
2019-02-21T18:00:08.432Z,41.27
2019-02-21T18:05:15.597Z,22.93
2019-02-21T18:10:22.857Z,13.98
2019-02-21T18:15:29.963Z,16.77
2019-02-21T18:20:37.082Z,24.20
2019-02-21T18:25:49.297Z,26.48
2019-02-21T18:30:56.853Z,24.30
2019-02-21T18:36:04.116Z,16.23
2019-02-21T18:41:11.179Z,20.80
2019-02-21T18:46:18.379Z,13.13
2019-02-21T18:51:25.604Z,18.60
2019-02-21T18:56:37.578Z,12.60
2019-02-21T19:01:46.806Z,12.73
2019-02-21T19:06:54.221Z,10.60
2019-02-21T19:12:01.429Z,11.17
2019-02-21T19:17:08.838Z,12.00
2019-02-21T19:22:16.702Z,16.93
2019-02-21T19:27:23.841Z,14.67
2019-02-21T19:32:30.903Z,36.63
2019-02-21T19:37:38.207Z,46.33
2019-02-21T19:42:45.484Z,30.03
2019-02-21T19:47:52.573Z,25.73
2019-02-21T19:52:59.615Z,15.80
2019-02-21T19:58:06.813Z,16.97
2019-02-21T20:03:14.266Z,29.07
2019-02-21T20:08:21.863Z,23.57
2019-02-21T20:13:29.000Z,14.47
2019-02-21T20:18:36.240Z,17.70
2019-02-21T20:23:44.224Z,16.53
2019-02-21T20:28:51.421Z,8.27
2019-02-21T20:33:58.523Z,18.03
2019-02-21T20:39:07.547Z,20.20
2019-02-21T20:44:15.811Z,12.73
2019-02-21T20:49:22.996Z,10.60
2019-02-21T20:54:30.060Z,16.83
2019-02-21T20:59:37.233Z,7.67
2019-02-21T21:04:44.554Z,9.67
2019-02-21T21:09:51.666Z,13.37
2019-02-21T21:14:58.759Z,19.17
2019-02-21T21:20:15.821Z,12.60
2019-02-21T21:25:15.512Z,4.43
2019-02-21T21:30:22.646Z,7.27
2019-02-21T21:35:30.837Z,7.83
2019-02-21T21:40:37.891Z,10.37
2019-02-21T21:45:44.963Z,10.83
2019-02-21T21:50:52.083Z,6.50
2019-02-21T21:55:59.171Z,5.50
2019-02-21T22:01:06.380Z,12.83
2019-02-21T22:06:13.575Z,7.20
2019-02-21T22:11:20.777Z,4.60
2019-02-21T22:16:28.169Z,9.23
2019-02-21T22:21:35.492Z,6.03
2019-02-21T22:26:42.670Z,12.73
2019-02-21T22:31:49.790Z,7.07
2019-02-21T22:36:56.972Z,4.80
2019-02-21T22:42:04.170Z,7.80
2019-02-21T22:47:11.359Z,6.63
2019-02-21T22:52:18.527Z,3.20
2019-02-21T22:57:26.178Z,9.90
2019-02-21T23:02:34.982Z,4.17
2019-02-21T23:07:52.858Z,6.20
2019-02-21T23:13:00.503Z,10.13
2019-02-21T23:18:07.820Z,4.87
2019-02-21T23:23:15.347Z,6.30
2019-02-21T23:28:22.945Z,5.00
2019-02-21T23:33:32.518Z,4.97
2019-02-21T23:38:39.801Z,6.67
2019-02-21T23:43:47.367Z,6.23
2019-02-21T23:48:56.577Z,4.80
2019-02-21T23:54:03.799Z,6.30
2019-02-21T23:59:10.988Z,7.20
